sensor_id;sensor_type;location;lat;lon;timestamp;pressure;altitude;pressure_sealevel;temperature;humidity
62592;BME280;48659;41.622;2.276;2022-07-25T00:01:08;99785.43;;;28.04;27.37
62592;BME280;48659;41.622;2.276;2022-07-25T00:03:37;99784.32;;;28.56;27.70
62592;BME280;48659;41.622;2.276;2022-07-25T00:06:05;99782.44;;;28.77;28.19
62592;BME280;48659;41.622;2.276;2022-07-25T00:08:36;99783.82;;;28.13;28.70
62592;BME280;48659;41.622;2.276;2022-07-25T00:11:04;99782.95;;;28.31;28.88
62592;BME280;48659;41.622;2.276;2022-07-25T00:13:32;99778.68;;;28.05;28.14
62592;BME280;48659;41.622;2.276;2022-07-25T00:16:00;99774.85;;;28.72;28.60
62592;BME280;48659;41.622;2.276;2022-07-25T00:18:28;99772.37;;;28.59;28.82
62592;BME280;48659;41.622;2.276;2022-07-25T00:20:56;99771.43;;;27.20;28.78
62592;BME280;48659;41.622;2.276;2022-07-25T00:23:23;99768.45;;;28.65;27.94
62592;BME280;48659;41.622;2.276;2022-07-25T00:25:51;99765.70;;;27.60;27.79
62592;BME280;48659;41.622;2.276;2022-07-25T00:28:18;99763.48;;;28.66;27.65
62592;BME280;48659;41.622;2.276;2022-07-25T00:30:46;99762.40;;;28.09;27.83
62592;BME280;48659;41.622;2.276;2022-07-25T00:33:13;99759.75;;;28.24;28.42
62592;BME280;48659;41.622;2.276;2022-07-25T00:35:41;99758.18;;;27.03;28.25
62592;BME280;48659;41.622;2.276;2022-07-25T00:38:08;99757.06;;;27.77;26.96
62592;BME280;48659;41.622;2.276;2022-07-25T00:40:37;99759.25;;;28.06;27.22
62592;BME280;48659;41.622;2.276;2022-07-25T00:43:06;99752.72;;;28.02;27.46
62592;BME280;48659;41.622;2.276;2022-07-25T00:45:34;99749.87;;;27.52;27.38
62592;BME280;48659;41.622;2.276;2022-07-25T00:48:01;99744.68;;;27.61;27.44
62592;BME280;48659;41.622;2.276;2022-07-25T00:50:36;99743.37;;;27.58;27.66
62592;BME280;48659;41.622;2.276;2022-07-25T00:53:03;99739.21;;;28.08;27.11
62592;BME280;48659;41.622;2.276;2022-07-25T00:55:37;99737.99;;;27.49;27.55
62592;BME280;48659;41.622;2.276;2022-07-25T00:58:05;99734.55;;;28.02;27.26
62592;BME280;48659;41.622;2.276;2022-07-25T01:00:32;99735.01;;;27.33;27.39
62592;BME280;48659;41.622;2.276;2022-07-25T01:03:00;99730.44;;;28.00;27.09
62592;BME280;48659;41.622;2.276;2022-07-25T01:05:29;99727.25;;;28.13;26.89
62592;BME280;48659;41.622;2.276;2022-07-25T01:07:57;99721.56;;;28.24;27.20
62592;BME280;48659;41.622;2.276;2022-07-25T01:10:24;99725.04;;;27.33;27.28
62592;BME280;48659;41.622;2.276;2022-07-25T01:12:54;99723.14;;;27.68;26.96
62592;BME280;48659;41.622;2.276;2022-07-25T01:15:22;99722.12;;;27.48;26.74
62592;BME280;48659;41.622;2.276;2022-07-25T01:17:50;99723.66;;;27.34;26.53
62592;BME280;48659;41.622;2.276;2022-07-25T01:20:18;99724.50;;;27.50;26.31
62592;BME280;48659;41.622;2.276;2022-07-25T01:22:46;99720.94;;;27.32;25.91
62592;BME280;48659;41.622;2.276;2022-07-25T01:25:14;99718.82;;;27.68;25.48
62592;BME280;48659;41.622;2.276;2022-07-25T01:27:42;99719.14;;;27.12;25.44
62592;BME280;48659;41.622;2.276;2022-07-25T01:30:12;99716.64;;;27.63;25.34
62592;BME280;48659;41.622;2.276;2022-07-25T01:32:41;99714.80;;;26.97;25.77
62592;BME280;48659;41.622;2.276;2022-07-25T01:35:10;99711.19;;;28.14;25.44
62592;BME280;48659;41.622;2.276;2022-07-25T01:37:38;99712.09;;;27.57;25.63
62592;BME280;48659;41.622;2.276;2022-07-25T01:40:07;99711.87;;;28.40;25.37
62592;BME280;48659;41.622;2.276;2022-07-25T01:42:35;99706.33;;;28.10;25.17
62592;BME280;48659;41.622;2.276;2022-07-25T01:45:04;99710.12;;;27.94;25.09
62592;BME280;48659;41.622;2.276;2022-07-25T01:47:36;99704.04;;;27.18;25.22
62592;BME280;48659;41.622;2.276;2022-07-25T01:50:05;99703.82;;;27.44;24.88
62592;BME280;48659;41.622;2.276;2022-07-25T01:52:38;99701.39;;;27.09;24.83
62592;BME280;48659;41.622;2.276;2022-07-25T01:55:06;99699.72;;;27.50;24.71
62592;BME280;48659;41.622;2.276;2022-07-25T01:57:34;99696.10;;;27.90;24.52
62592;BME280;48659;41.622;2.276;2022-07-25T02:00:03;99695.01;;;27.47;24.84
62592;BME280;48659;41.622;2.276;2022-07-25T02:02:31;99694.41;;;27.40;24.78
62592;BME280;48659;41.622;2.276;2022-07-25T02:04:58;99689.31;;;27.37;25.20
62592;BME280;48659;41.622;2.276;2022-07-25T02:07:25;99686.47;;;27.21;25.13
62592;BME280;48659;41.622;2.276;2022-07-25T02:09:53;99687.71;;;27.25;24.88
62592;BME280;48659;41.622;2.276;2022-07-25T02:12:21;99688.82;;;27.26;24.86
62592;BME280;48659;41.622;2.276;2022-07-25T02:14:49;99687.32;;;27.66;24.92
62592;BME280;48659;41.622;2.276;2022-07-25T02:17:16;99689.84;;;27.17;25.53
62592;BME280;48659;41.622;2.276;2022-07-25T02:19:44;99689.07;;;27.32;25.09
62592;BME280;48659;41.622;2.276;2022-07-25T02:22:12;99688.60;;;27.46;24.82
62592;BME280;48659;41.622;2.276;2022-07-25T02:24:39;99688.41;;;26.81;25.04
62592;BME280;48659;41.622;2.276;2022-07-25T02:27:07;99685.18;;;27.13;25.18
62592;BME280;48659;41.622;2.276;2022-07-25T02:29:35;99684.00;;;26.96;24.66
62592;BME280;48659;41.622;2.276;2022-07-25T02:32:03;99686.45;;;27.29;24.80
62592;BME280;48659;41.622;2.276;2022-07-25T02:34:30;99686.43;;;27.12;24.74
62592;BME280;48659;41.622;2.276;2022-07-25T02:36:57;99686.68;;;27.13;24.79
62592;BME280;48659;41.622;2.276;2022-07-25T02:39:24;99689.22;;;27.39;24.63
62592;BME280;48659;41.622;2.276;2022-07-25T02:41:51;99689.74;;;26.89;24.89
62592;BME280;48659;41.622;2.276;2022-07-25T02:44:18;99691.64;;;27.03;25.14
62592;BME280;48659;41.622;2.276;2022-07-25T02:46:45;99685.49;;;26.22;25.49
62592;BME280;48659;41.622;2.276;2022-07-25T02:49:13;99683.23;;;26.49;25.18
62592;BME280;48659;41.622;2.276;2022-07-25T02:51:40;99679.48;;;26.64;25.30
62592;BME280;48659;41.622;2.276;2022-07-25T02:54:08;99678.51;;;26.73;25.28
62592;BME280;48659;41.622;2.276;2022-07-25T02:56:35;99680.07;;;26.34;25.57
62592;BME280;48659;41.622;2.276;2022-07-25T02:59:03;99677.24;;;27.00;25.79
62592;BME280;48659;41.622;2.276;2022-07-25T03:01:31;99680.68;;;26.35;25.75
62592;BME280;48659;41.622;2.276;2022-07-25T03:03:58;99678.86;;;25.92;25.61
62592;BME280;48659;41.622;2.276;2022-07-25T03:06:25;99679.30;;;26.73;25.32
62592;BME280;48659;41.622;2.276;2022-07-25T03:08:53;99678.12;;;26.80;25.16
62592;BME280;48659;41.622;2.276;2022-07-25T03:11:21;99680.62;;;26.86;25.65
62592;BME280;48659;41.622;2.276;2022-07-25T03:13:48;99679.87;;;25.81;25.42
62592;BME280;48659;41.622;2.276;2022-07-25T03:16:15;99679.26;;;27.04;25.02
62592;BME280;48659;41.622;2.276;2022-07-25T03:18:43;99680.38;;;26.38;25.33
62592;BME280;48659;41.622;2.276;2022-07-25T03:21:10;99679.98;;;26.14;25.38
62592;BME280;48659;41.622;2.276;2022-07-25T03:23:38;99679.76;;;26.41;25.17
62592;BME280;48659;41.622;2.276;2022-07-25T03:26:05;99676.72;;;26.59;24.90
62592;BME280;48659;41.622;2.276;2022-07-25T03:28:33;99676.82;;;26.00;25.03
62592;BME280;48659;41.622;2.276;2022-07-25T03:31:00;99679.19;;;26.36;25.04
62592;BME280;48659;41.622;2.276;2022-07-25T03:33:28;99679.26;;;26.67;25.21
62592;BME280;48659;41.622;2.276;2022-07-25T03:35:55;99683.02;;;26.35;24.79
62592;BME280;48659;41.622;2.276;2022-07-25T03:38:22;99684.68;;;26.42;24.94
62592;BME280;48659;41.622;2.276;2022-07-25T03:40:50;99682.60;;;26.37;24.79
62592;BME280;48659;41.622;2.276;2022-07-25T03:43:17;99686.26;;;26.50;24.96
62592;BME280;48659;41.622;2.276;2022-07-25T03:45:44;99687.67;;;26.11;24.86
62592;BME280;48659;41.622;2.276;2022-07-25T03:48:11;99686.73;;;25.94;24.67
62592;BME280;48659;41.622;2.276;2022-07-25T03:50:39;99687.78;;;25.75;24.88
62592;BME280;48659;41.622;2.276;2022-07-25T03:53:06;99683.75;;;26.35;24.66
62592;BME280;48659;41.622;2.276;2022-07-25T03:55:34;99680.48;;;26.26;24.82
62592;BME280;48659;41.622;2.276;2022-07-25T03:58:02;99680.43;;;26.61;24.74
62592;BME280;48659;41.622;2.276;2022-07-25T04:00:30;99680.62;;;26.13;24.85
62592;BME280;48659;41.622;2.276;2022-07-25T04:02:57;99679.13;;;26.73;24.51
62592;BME280;48659;41.622;2.276;2022-07-25T04:05:25;99680.84;;;26.47;24.67
62592;BME280;48659;41.622;2.276;2022-07-25T04:07:52;99682.03;;;26.25;24.50
62592;BME280;48659;41.622;2.276;2022-07-25T04:10:19;99683.37;;;26.49;24.19
62592;BME280;48659;41.622;2.276;2022-07-25T04:12:47;99681.91;;;26.84;23.87
62592;BME280;48659;41.622;2.276;2022-07-25T04:15:14;99683.49;;;26.21;24.34
62592;BME280;48659;41.622;2.276;2022-07-25T04:17:42;99681.89;;;26.38;24.06
62592;BME280;48659;41.622;2.276;2022-07-25T04:20:10;99680.66;;;26.45;24.24
62592;BME280;48659;41.622;2.276;2022-07-25T04:22:38;99678.11;;;26.15;24.24
62592;BME280;48659;41.622;2.276;2022-07-25T04:25:06;99680.24;;;25.72;24.35
62592;BME280;48659;41.622;2.276;2022-07-25T04:27:38;99687.64;;;26.10;24.29
62592;BME280;48659;41.622;2.276;2022-07-25T04:30:06;99690.19;;;26.08;24.66
62592;BME280;48659;41.622;2.276;2022-07-25T04:32:37;99695.14;;;25.41;24.76
62592;BME280;48659;41.622;2.276;2022-07-25T04:35:05;99698.26;;;26.15;24.93
62592;BME280;48659;41.622;2.276;2022-07-25T04:37:33;99701.56;;;25.89;24.60
62592;BME280;48659;41.622;2.276;2022-07-25T04:40:00;99701.27;;;25.74;24.93
62592;BME280;48659;41.622;2.276;2022-07-25T04:42:27;99702.60;;;26.04;24.94
62592;BME280;48659;41.622;2.276;2022-07-25T04:44:54;99705.53;;;25.72;25.00
62592;BME280;48659;41.622;2.276;2022-07-25T04:47:21;99705.94;;;26.43;25.31
62592;BME280;48659;41.622;2.276;2022-07-25T04:49:48;99705.58;;;25.92;25.17
62592;BME280;48659;41.622;2.276;2022-07-25T04:52:16;99704.95;;;26.01;25.25
62592;BME280;48659;41.622;2.276;2022-07-25T04:54:43;99707.26;;;26.02;25.50
62592;BME280;48659;41.622;2.276;2022-07-25T04:57:11;99709.31;;;25.97;25.54
62592;BME280;48659;41.622;2.276;2022-07-25T04:59:38;99710.49;;;25.28;25.58
62592;BME280;48659;41.622;2.276;2022-07-25T05:02:06;99710.28;;;25.96;25.32
62592;BME280;48659;41.622;2.276;2022-07-25T05:04:33;99713.84;;;25.42;25.10
62592;BME280;48659;41.622;2.276;2022-07-25T05:07:01;99715.49;;;25.40;25.19
62592;BME280;48659;41.622;2.276;2022-07-25T05:09:29;99715.39;;;26.16;25.14
62592;BME280;48659;41.622;2.276;2022-07-25T05:11:56;99715.68;;;25.18;25.10
62592;BME280;48659;41.622;2.276;2022-07-25T05:14:23;99718.08;;;26.41;24.79
62592;BME280;48659;41.622;2.276;2022-07-25T05:16:52;99717.13;;;25.51;24.65
62592;BME280;48659;41.622;2.276;2022-07-25T05:19:18;99713.68;;;27.01;24.19
62592;BME280;48659;41.622;2.276;2022-07-25T05:21:45;99713.11;;;26.54;24.75
62592;BME280;48659;41.622;2.276;2022-07-25T05:24:13;99708.78;;;27.17;23.91
62592;BME280;48659;41.622;2.276;2022-07-25T05:26:41;99711.08;;;26.60;23.82
62592;BME280;48659;41.622;2.276;2022-07-25T05:29:09;99716.06;;;27.36;23.98
62592;BME280;48659;41.622;2.276;2022-07-25T05:31:38;99720.36;;;26.93;23.94
62592;BME280;48659;41.622;2.276;2022-07-25T05:34:06;99726.26;;;27.36;24.13
62592;BME280;48659;41.622;2.276;2022-07-25T05:36:34;99728.99;;;27.00;23.92
62592;BME280;48659;41.622;2.276;2022-07-25T05:39:01;99729.88;;;27.46;23.91
62592;BME280;48659;41.622;2.276;2022-07-25T05:41:30;99731.18;;;27.85;23.61
62592;BME280;48659;41.622;2.276;2022-07-25T05:43:58;99727.58;;;28.09;23.60
62592;BME280;48659;41.622;2.276;2022-07-25T05:46:24;99728.83;;;28.89;23.27
62592;BME280;48659;41.622;2.276;2022-07-25T05:48:52;99728.21;;;28.36;22.94
62592;BME280;48659;41.622;2.276;2022-07-25T05:51:20;99724.82;;;28.99;22.41
62592;BME280;48659;41.622;2.276;2022-07-25T05:53:47;99729.40;;;29.25;21.63
62592;BME280;48659;41.622;2.276;2022-07-25T05:56:14;99732.79;;;29.19;21.77
62592;BME280;48659;41.622;2.276;2022-07-25T05:58:42;99738.63;;;28.07;22.40
62592;BME280;48659;41.622;2.276;2022-07-25T06:01:11;99738.15;;;28.86;22.28
62592;BME280;48659;41.622;2.276;2022-07-25T06:03:39;99740.30;;;28.50;22.21
62592;BME280;48659;41.622;2.276;2022-07-25T06:06:07;99742.94;;;28.81;22.14
62592;BME280;48659;41.622;2.276;2022-07-25T06:08:35;99746.62;;;28.12;22.30
62592;BME280;48659;41.622;2.276;2022-07-25T06:11:04;99752.22;;;27.81;22.15
62592;BME280;48659;41.622;2.276;2022-07-25T06:13:39;99753.40;;;28.83;21.42
62592;BME280;48659;41.622;2.276;2022-07-25T06:16:07;99756.12;;;28.66;21.79
62592;BME280;48659;41.622;2.276;2022-07-25T06:18:34;99756.24;;;29.22;21.13
62592;BME280;48659;41.622;2.276;2022-07-25T06:21:02;99755.50;;;29.33;21.02
62592;BME280;48659;41.622;2.276;2022-07-25T06:23:31;99760.56;;;29.65;20.88
62592;BME280;48659;41.622;2.276;2022-07-25T06:25:58;99759.97;;;30.27;20.14
62592;BME280;48659;41.622;2.276;2022-07-25T06:28:25;99760.06;;;30.73;20.11
62592;BME280;48659;41.622;2.276;2022-07-25T06:30:53;99760.48;;;29.43;20.10
62592;BME280;48659;41.622;2.276;2022-07-25T06:33:21;99760.19;;;30.77;19.89
62592;BME280;48659;41.622;2.276;2022-07-25T06:35:48;99764.98;;;30.28;19.85
62592;BME280;48659;41.622;2.276;2022-07-25T06:38:16;99767.04;;;30.82;19.71
62592;BME280;48659;41.622;2.276;2022-07-25T06:40:43;99768.04;;;30.43;20.01
62592;BME280;48659;41.622;2.276;2022-07-25T06:43:10;99767.93;;;30.13;20.18
62592;BME280;48659;41.622;2.276;2022-07-25T06:45:38;99770.59;;;30.61;19.91
62592;BME280;48659;41.622;2.276;2022-07-25T06:48:05;99773.50;;;31.32;20.42
62592;BME280;48659;41.622;2.276;2022-07-25T06:50:33;99774.53;;;30.11;22.18
62592;BME280;48659;41.622;2.276;2022-07-25T06:53:01;99781.33;;;30.85;21.98
62592;BME280;48659;41.622;2.276;2022-07-25T06:55:29;99777.82;;;29.97;24.33
62592;BME280;48659;41.622;2.276;2022-07-25T06:57:57;99774.47;;;29.88;24.94
62592;BME280;48659;41.622;2.276;2022-07-25T07:00:24;99772.32;;;30.40;25.13
62592;BME280;48659;41.622;2.276;2022-07-25T07:02:53;99775.01;;;31.14;24.20
62592;BME280;48659;41.622;2.276;2022-07-25T07:05:20;99778.11;;;30.94;24.72
62592;BME280;48659;41.622;2.276;2022-07-25T07:07:48;99774.79;;;31.33;24.48
62592;BME280;48659;41.622;2.276;2022-07-25T07:10:16;99773.60;;;31.22;24.95
62592;BME280;48659;41.622;2.276;2022-07-25T07:12:44;99773.30;;;30.19;26.33
62592;BME280;48659;41.622;2.276;2022-07-25T07:15:12;99775.89;;;30.33;26.69
62592;BME280;48659;41.622;2.276;2022-07-25T07:17:39;99779.41;;;29.51;27.86
62592;BME280;48659;41.622;2.276;2022-07-25T07:20:08;99779.68;;;30.20;27.39
62592;BME280;48659;41.622;2.276;2022-07-25T07:22:47;99782.13;;;30.24;26.82
62592;BME280;48659;41.622;2.276;2022-07-25T07:25:16;99781.92;;;30.69;27.44
62592;BME280;48659;41.622;2.276;2022-07-25T07:27:44;99773.40;;;31.38;26.43
62592;BME280;48659;41.622;2.276;2022-07-25T07:30:12;99772.79;;;30.67;27.32
62592;BME280;48659;41.622;2.276;2022-07-25T07:32:40;99771.55;;;31.38;26.49
62592;BME280;48659;41.622;2.276;2022-07-25T07:35:08;99769.70;;;32.37;27.07
62592;BME280;48659;41.622;2.276;2022-07-25T07:37:35;99768.12;;;32.36;26.68
62592;BME280;48659;41.622;2.276;2022-07-25T07:40:03;99772.10;;;32.50;27.38
62592;BME280;48659;41.622;2.276;2022-07-25T07:42:37;99771.98;;;32.80;27.23
62592;BME280;48659;41.622;2.276;2022-07-25T07:45:11;99773.44;;;32.95;27.83
62592;BME280;48659;41.622;2.276;2022-07-25T07:47:38;99771.90;;;32.50;27.87
62592;BME280;48659;41.622;2.276;2022-07-25T07:50:07;99772.61;;;32.36;28.94
62592;BME280;48659;41.622;2.276;2022-07-25T07:52:34;99774.97;;;32.33;28.80
62592;BME280;48659;41.622;2.276;2022-07-25T07:55:03;99771.43;;;32.79;28.48
62592;BME280;48659;41.622;2.276;2022-07-25T07:57:38;99778.89;;;31.93;28.79
62592;BME280;48659;41.622;2.276;2022-07-25T08:00:06;99778.71;;;33.35;28.29
62592;BME280;48659;41.622;2.276;2022-07-25T08:02:42;99780.26;;;32.77;28.65
62592;BME280;48659;41.622;2.276;2022-07-25T08:05:09;99782.35;;;33.65;28.16
62592;BME280;48659;41.622;2.276;2022-07-25T08:07:36;99780.81;;;32.90;28.90
62592;BME280;48659;41.622;2.276;2022-07-25T08:10:05;99778.65;;;33.39;28.70
62592;BME280;48659;41.622;2.276;2022-07-25T08:12:33;99775.25;;;33.39;29.00
62592;BME280;48659;41.622;2.276;2022-07-25T08:15:06;99777.70;;;30.03;37.14
62592;BME280;48659;41.622;2.276;2022-07-25T08:17:34;99776.47;;;29.42;40.83
62592;BME280;48659;41.622;2.276;2022-07-25T08:20:01;99779.62;;;30.59;39.53
62592;BME280;48659;41.622;2.276;2022-07-25T08:22:41;99780.28;;;31.10;38.87
62592;BME280;48659;41.622;2.276;2022-07-25T08:25:11;99785.07;;;30.38;37.74
62592;BME280;48659;41.622;2.276;2022-07-25T08:27:39;99784.20;;;30.50;37.56
62592;BME280;48659;41.622;2.276;2022-07-25T08:30:08;99783.29;;;30.23;38.17
62592;BME280;48659;41.622;2.276;2022-07-25T08:32:45;99784.70;;;28.98;40.69
62592;BME280;48659;41.622;2.276;2022-07-25T08:35:13;99789.42;;;30.49;40.01
62592;BME280;48659;41.622;2.276;2022-07-25T08:37:40;99799.63;;;31.12;36.65
62592;BME280;48659;41.622;2.276;2022-07-25T08:40:10;99792.25;;;31.04;35.51
62592;BME280;48659;41.622;2.276;2022-07-25T08:42:38;99787.93;;;31.35;34.94
62592;BME280;48659;41.622;2.276;2022-07-25T08:45:08;99796.43;;;31.62;36.67
62592;BME280;48659;41.622;2.276;2022-07-25T08:47:36;99792.61;;;31.51;36.48
62592;BME280;48659;41.622;2.276;2022-07-25T08:50:06;99802.07;;;31.51;37.31
62592;BME280;48659;41.622;2.276;2022-07-25T08:52:34;99797.36;;;31.84;37.16
62592;BME280;48659;41.622;2.276;2022-07-25T08:55:05;99800.34;;;29.18;40.70
62592;BME280;48659;41.622;2.276;2022-07-25T08:57:34;99806.47;;;30.14;40.54
62592;BME280;48659;41.622;2.276;2022-07-25T09:00:05;99807.08;;;31.97;38.24
62592;BME280;48659;41.622;2.276;2022-07-25T09:02:33;99810.29;;;31.61;37.96
62592;BME280;48659;41.622;2.276;2022-07-25T09:05:01;99804.06;;;31.99;36.90
62592;BME280;48659;41.622;2.276;2022-07-25T09:07:30;99805.72;;;32.25;37.89
62592;BME280;48659;41.622;2.276;2022-07-25T09:09:58;99808.56;;;32.09;37.91
62592;BME280;48659;41.622;2.276;2022-07-25T09:12:26;99812.96;;;31.69;38.64
62592;BME280;48659;41.622;2.276;2022-07-25T09:14:53;99812.80;;;32.20;37.39
62592;BME280;48659;41.622;2.276;2022-07-25T09:17:21;99810.96;;;32.60;37.21
62592;BME280;48659;41.622;2.276;2022-07-25T09:19:53;99805.13;;;31.94;37.82
62592;BME280;48659;41.622;2.276;2022-07-25T09:22:20;99809.69;;;31.40;38.35
62592;BME280;48659;41.622;2.276;2022-07-25T09:24:48;99812.38;;;31.43;38.33
62592;BME280;48659;41.622;2.276;2022-07-25T09:27:15;99812.91;;;33.02;36.58
62592;BME280;48659;41.622;2.276;2022-07-25T09:29:43;99808.75;;;32.20;37.18
62592;BME280;48659;41.622;2.276;2022-07-25T09:32:16;99814.66;;;30.70;39.50
62592;BME280;48659;41.622;2.276;2022-07-25T09:34:46;99808.73;;;31.21;36.97
62592;BME280;48659;41.622;2.276;2022-07-25T09:37:16;99813.94;;;29.89;39.44
62592;BME280;48659;41.622;2.276;2022-07-25T09:39:44;99819.19;;;31.11;37.69
62592;BME280;48659;41.622;2.276;2022-07-25T09:42:16;99811.68;;;31.79;34.90
62592;BME280;48659;41.622;2.276;2022-07-25T09:44:55;99812.21;;;30.82;36.99
62592;BME280;48659;41.622;2.276;2022-07-25T09:47:23;99810.30;;;32.62;36.17
62592;BME280;48659;41.622;2.276;2022-07-25T09:49:51;99810.33;;;32.85;35.61
62592;BME280;48659;41.622;2.276;2022-07-25T09:52:18;99812.83;;;32.79;36.83
62592;BME280;48659;41.622;2.276;2022-07-25T09:54:45;99811.77;;;31.41;38.62
62592;BME280;48659;41.622;2.276;2022-07-25T09:57:13;99800.11;;;32.31;37.73
62592;BME280;48659;41.622;2.276;2022-07-25T09:59:41;99802.87;;;30.87;38.62
62592;BME280;48659;41.622;2.276;2022-07-25T10:02:10;99803.37;;;31.89;38.46
62592;BME280;48659;41.622;2.276;2022-07-25T10:04:45;99804.93;;;30.63;38.61
62592;BME280;48659;41.622;2.276;2022-07-25T10:07:15;99803.44;;;31.86;37.88
62592;BME280;48659;41.622;2.276;2022-07-25T10:09:47;99803.81;;;31.10;38.63
62592;BME280;48659;41.622;2.276;2022-07-25T10:12:18;99798.31;;;32.24;37.28
62592;BME280;48659;41.622;2.276;2022-07-25T10:15:05;99806.07;;;31.24;38.50
62592;BME280;48659;41.622;2.276;2022-07-25T10:17:35;99798.32;;;31.78;36.95
62592;BME280;48659;41.622;2.276;2022-07-25T10:20:07;99795.35;;;32.51;36.23
62592;BME280;48659;41.622;2.276;2022-07-25T10:22:37;99800.04;;;31.25;38.11
62592;BME280;48659;41.622;2.276;2022-07-25T10:25:10;99797.78;;;32.71;35.95
62592;BME280;48659;41.622;2.276;2022-07-25T10:27:42;99796.58;;;31.25;36.92
62592;BME280;48659;41.622;2.276;2022-07-25T10:30:18;99794.38;;;32.85;35.65
62592;BME280;48659;41.622;2.276;2022-07-25T10:32:49;99793.16;;;33.12;35.48
62592;BME280;48659;41.622;2.276;2022-07-25T10:35:17;99799.97;;;32.63;35.59
62592;BME280;48659;41.622;2.276;2022-07-25T10:37:45;99802.73;;;32.77;34.89
62592;BME280;48659;41.622;2.276;2022-07-25T10:40:25;99800.69;;;33.86;33.46
62592;BME280;48659;41.622;2.276;2022-07-25T10:42:59;99800.11;;;33.32;33.86
62592;BME280;48659;41.622;2.276;2022-07-25T10:45:36;99792.64;;;34.01;33.30
62592;BME280;48659;41.622;2.276;2022-07-25T10:48:07;99800.40;;;34.30;33.12
62592;BME280;48659;41.622;2.276;2022-07-25T10:50:45;99794.93;;;32.36;35.00
62592;BME280;48659;41.622;2.276;2022-07-25T10:53:13;99794.05;;;33.54;34.62
62592;BME280;48659;41.622;2.276;2022-07-25T10:55:40;99789.32;;;32.75;35.63
62592;BME280;48659;41.622;2.276;2022-07-25T10:58:08;99786.89;;;32.51;35.86
62592;BME280;48659;41.622;2.276;2022-07-25T11:00:42;99782.52;;;33.21;34.70
62592;BME280;48659;41.622;2.276;2022-07-25T11:03:10;99779.55;;;34.12;33.53
62592;BME280;48659;41.622;2.276;2022-07-25T11:05:44;99776.96;;;33.82;33.18
62592;BME280;48659;41.622;2.276;2022-07-25T11:08:11;99779.12;;;33.52;33.79
62592;BME280;48659;41.622;2.276;2022-07-25T11:10:40;99776.90;;;31.52;35.50
62592;BME280;48659;41.622;2.276;2022-07-25T11:13:09;99776.69;;;31.59;36.64
62592;BME280;48659;41.622;2.276;2022-07-25T11:15:41;99781.37;;;30.73;37.64
62592;BME280;48659;41.622;2.276;2022-07-25T11:18:09;99781.81;;;31.94;36.37
62592;BME280;48659;41.622;2.276;2022-07-25T11:20:37;99788.21;;;32.76;35.20
62592;BME280;48659;41.622;2.276;2022-07-25T11:23:05;99791.13;;;31.92;35.61
62592;BME280;48659;41.622;2.276;2022-07-25T11:25:32;99794.53;;;32.84;34.26
62592;BME280;48659;41.622;2.276;2022-07-25T11:28:00;99791.37;;;32.53;34.48
62592;BME280;48659;41.622;2.276;2022-07-25T11:30:27;99790.19;;;33.66;33.69
62592;BME280;48659;41.622;2.276;2022-07-25T11:32:57;99786.88;;;33.36;33.69
62592;BME280;48659;41.622;2.276;2022-07-25T11:35:26;99782.50;;;33.69;32.75
62592;BME280;48659;41.622;2.276;2022-07-25T11:37:55;99773.38;;;34.11;31.61
62592;BME280;48659;41.622;2.276;2022-07-25T11:40:22;99777.66;;;32.83;34.17
62592;BME280;48659;41.622;2.276;2022-07-25T11:42:52;99780.76;;;32.76;34.37
62592;BME280;48659;41.622;2.276;2022-07-25T11:45:21;99778.38;;;34.25;32.94
62592;BME280;48659;41.622;2.276;2022-07-25T11:48:00;99781.25;;;34.08;32.64
62592;BME280;48659;41.622;2.276;2022-07-25T11:50:29;99778.42;;;34.09;32.87
62592;BME280;48659;41.622;2.276;2022-07-25T11:52:59;99771.63;;;32.91;33.20
62592;BME280;48659;41.622;2.276;2022-07-25T11:55:29;99762.97;;;34.66;31.68
62592;BME280;48659;41.622;2.276;2022-07-25T11:57:59;99761.08;;;34.54;31.94
62592;BME280;48659;41.622;2.276;2022-07-25T12:00:28;99763.27;;;35.02;30.98
62592;BME280;48659;41.622;2.276;2022-07-25T12:03:06;99767.44;;;35.32;30.69
62592;BME280;48659;41.622;2.276;2022-07-25T12:05:34;99773.58;;;33.33;32.86
62592;BME280;48659;41.622;2.276;2022-07-25T12:08:08;99766.73;;;33.98;32.27
62592;BME280;48659;41.622;2.276;2022-07-25T12:10:40;99763.36;;;32.93;32.77
62592;BME280;48659;41.622;2.276;2022-07-25T12:13:19;99760.26;;;33.50;32.68
62592;BME280;48659;41.622;2.276;2022-07-25T12:15:47;99752.84;;;34.65;31.28
62592;BME280;48659;41.622;2.276;2022-07-25T12:18:16;99751.73;;;33.83;32.25
62592;BME280;48659;41.622;2.276;2022-07-25T12:20:44;99752.84;;;34.97;30.30
62592;BME280;48659;41.622;2.276;2022-07-25T12:23:12;99752.21;;;35.94;29.50
62592;BME280;48659;41.622;2.276;2022-07-25T12:25:41;99741.36;;;35.48;29.48
62592;BME280;48659;41.622;2.276;2022-07-25T12:28:10;99731.26;;;35.55;29.64
62592;BME280;48659;41.622;2.276;2022-07-25T12:30:39;99734.69;;;34.37;30.55
62592;BME280;48659;41.622;2.276;2022-07-25T12:33:07;99734.97;;;35.24;30.44
62592;BME280;48659;41.622;2.276;2022-07-25T12:35:34;99721.47;;;34.84;30.76
62592;BME280;48659;41.622;2.276;2022-07-25T12:38:03;99716.17;;;34.93;30.88
62592;BME280;48659;41.622;2.276;2022-07-25T12:40:39;99708.73;;;34.24;31.18
62592;BME280;48659;41.622;2.276;2022-07-25T12:43:06;99692.50;;;32.97;33.16
62592;BME280;48659;41.622;2.276;2022-07-25T12:45:34;99687.49;;;34.59;31.59
62592;BME280;48659;41.622;2.276;2022-07-25T12:48:01;99689.96;;;34.28;31.58
62592;BME280;48659;41.622;2.276;2022-07-25T12:50:29;99687.46;;;34.69;31.34
62592;BME280;48659;41.622;2.276;2022-07-25T12:52:56;99682.05;;;34.91;30.82
62592;BME280;48659;41.622;2.276;2022-07-25T12:55:23;99686.42;;;35.05;31.21
62592;BME280;48659;41.622;2.276;2022-07-25T12:57:50;99682.05;;;35.03;31.09
62592;BME280;48659;41.622;2.276;2022-07-25T13:00:20;99669.63;;;34.69;31.53
62592;BME280;48659;41.622;2.276;2022-07-25T13:02:50;99660.29;;;34.49;31.54
62592;BME280;48659;41.622;2.276;2022-07-25T13:05:17;99661.02;;;33.51;32.18
62592;BME280;48659;41.622;2.276;2022-07-25T13:07:45;99665.45;;;33.74;32.10